sensor_id;sensor_type;location;lat;lon;timestamp;temperature;humidity
74359;DHT22;62792;46.236;6.040;2023-12-20T00:02:44;19.40;43.60
74359;DHT22;62792;46.236;6.040;2023-12-20T00:07:49;19.40;43.80
74359;DHT22;62792;46.236;6.040;2023-12-20T00:12:55;19.40;43.70
74359;DHT22;62792;46.236;6.040;2023-12-20T00:17:58;19.30;43.60
74359;DHT22;62792;46.236;6.040;2023-12-20T00:23:03;19.40;43.80
74359;DHT22;62792;46.236;6.040;2023-12-20T00:28:08;19.30;43.50
74359;DHT22;62792;46.236;6.040;2023-12-20T00:33:11;19.50;43.70
74359;DHT22;62792;46.236;6.040;2023-12-20T00:38:14;19.40;43.60
74359;DHT22;62792;46.236;6.040;2023-12-20T00:43:18;19.40;43.40
74359;DHT22;62792;46.236;6.040;2023-12-20T00:48:21;19.40;43.90
74359;DHT22;62792;46.236;6.040;2023-12-20T00:53:24;19.40;43.60
74359;DHT22;62792;46.236;6.040;2023-12-20T00:58:29;19.40;43.70
74359;DHT22;62792;46.236;6.040;2023-12-20T01:03:32;19.40;43.60
74359;DHT22;62792;46.236;6.040;2023-12-20T01:08:35;19.40;43.90
74359;DHT22;62792;46.236;6.040;2023-12-20T01:13:39;19.30;44.00
74359;DHT22;62792;46.236;6.040;2023-12-20T01:18:42;19.30;43.90
74359;DHT22;62792;46.236;6.040;2023-12-20T01:23:45;19.40;43.70
74359;DHT22;62792;46.236;6.040;2023-12-20T01:28:49;19.30;43.80
74359;DHT22;62792;46.236;6.040;2023-12-20T01:33:52;19.40;43.80
74359;DHT22;62792;46.236;6.040;2023-12-20T01:38:55;19.40;43.70
74359;DHT22;62792;46.236;6.040;2023-12-20T01:43:59;19.40;43.80
74359;DHT22;62792;46.236;6.040;2023-12-20T01:49:02;19.30;43.90
74359;DHT22;62792;46.236;6.040;2023-12-20T01:54:06;19.30;43.80
74359;DHT22;62792;46.236;6.040;2023-12-20T01:59:10;19.30;43.90
74359;DHT22;62792;46.236;6.040;2023-12-20T02:04:13;19.40;43.80
74359;DHT22;62792;46.236;6.040;2023-12-20T02:09:16;19.40;43.70
74359;DHT22;62792;46.236;6.040;2023-12-20T02:14:21;19.40;44.00
74359;DHT22;62792;46.236;6.040;2023-12-20T02:19:23;19.30;44.00
74359;DHT22;62792;46.236;6.040;2023-12-20T02:24:28;19.30;44.10
74359;DHT22;62792;46.236;6.040;2023-12-20T02:29:31;19.30;44.00
74359;DHT22;62792;46.236;6.040;2023-12-20T02:34:34;19.30;44.00
74359;DHT22;62792;46.236;6.040;2023-12-20T02:39:40;19.30;44.00
74359;DHT22;62792;46.236;6.040;2023-12-20T02:44:43;19.20;44.20
74359;DHT22;62792;46.236;6.040;2023-12-20T02:49:46;19.30;44.20
74359;DHT22;62792;46.236;6.040;2023-12-20T02:54:51;19.40;44.20
74359;DHT22;62792;46.236;6.040;2023-12-20T02:59:54;19.30;44.10
74359;DHT22;62792;46.236;6.040;2023-12-20T03:04:57;19.40;44.20
74359;DHT22;62792;46.236;6.040;2023-12-20T03:10:03;19.30;44.20
74359;DHT22;62792;46.236;6.040;2023-12-20T03:15:20;19.30;44.40
74359;DHT22;62792;46.236;6.040;2023-12-20T03:20:23;19.30;44.30
74359;DHT22;62792;46.236;6.040;2023-12-20T03:25:28;19.40;44.40
74359;DHT22;62792;46.236;6.040;2023-12-20T03:30:32;19.30;44.20
74359;DHT22;62792;46.236;6.040;2023-12-20T03:35:35;19.30;44.30
74359;DHT22;62792;46.236;6.040;2023-12-20T03:40:39;19.30;44.40
74359;DHT22;62792;46.236;6.040;2023-12-20T03:45:42;19.30;44.50
74359;DHT22;62792;46.236;6.040;2023-12-20T03:50:45;19.30;44.50
74359;DHT22;62792;46.236;6.040;2023-12-20T03:55:50;19.30;44.60
74359;DHT22;62792;46.236;6.040;2023-12-20T04:00:53;19.30;44.70
74359;DHT22;62792;46.236;6.040;2023-12-20T04:05:56;19.30;44.60
74359;DHT22;62792;46.236;6.040;2023-12-20T04:11:00;19.20;44.60
74359;DHT22;62792;46.236;6.040;2023-12-20T04:16:04;19.30;44.70
74359;DHT22;62792;46.236;6.040;2023-12-20T04:21:08;19.30;44.90
74359;DHT22;62792;46.236;6.040;2023-12-20T04:26:13;19.30;44.70
74359;DHT22;62792;46.236;6.040;2023-12-20T04:31:16;19.20;44.70
74359;DHT22;62792;46.236;6.040;2023-12-20T04:36:19;19.30;44.80
74359;DHT22;62792;46.236;6.040;2023-12-20T04:41:23;19.30;44.90
74359;DHT22;62792;46.236;6.040;2023-12-20T04:46:26;19.20;44.90
74359;DHT22;62792;46.236;6.040;2023-12-20T04:51:29;19.20;45.00
74359;DHT22;62792;46.236;6.040;2023-12-20T04:56:33;19.30;44.90
74359;DHT22;62792;46.236;6.040;2023-12-20T05:01:36;19.30;44.90
74359;DHT22;62792;46.236;6.040;2023-12-20T05:06:39;19.20;44.80
74359;DHT22;62792;46.236;6.040;2023-12-20T05:11:44;19.30;44.90
74359;DHT22;62792;46.236;6.040;2023-12-20T05:16:47;19.20;45.00
74359;DHT22;62792;46.236;6.040;2023-12-20T05:21:50;19.30;45.10
74359;DHT22;62792;46.236;6.040;2023-12-20T05:26:55;19.20;45.10
74359;DHT22;62792;46.236;6.040;2023-12-20T05:31:58;19.30;44.90
74359;DHT22;62792;46.236;6.040;2023-12-20T05:37:01;19.30;45.00
74359;DHT22;62792;46.236;6.040;2023-12-20T05:42:06;19.50;44.80
74359;DHT22;62792;46.236;6.040;2023-12-20T05:47:09;19.70;44.70
74359;DHT22;62792;46.236;6.040;2023-12-20T05:52:11;19.70;44.60
74359;DHT22;62792;46.236;6.040;2023-12-20T05:57:16;19.80;44.60
74359;DHT22;62792;46.236;6.040;2023-12-20T06:02:19;19.80;44.70
74359;DHT22;62792;46.236;6.040;2023-12-20T06:07:22;19.90;44.70
74359;DHT22;62792;46.236;6.040;2023-12-20T06:12:26;19.80;44.80
74359;DHT22;62792;46.236;6.040;2023-12-20T06:17:31;19.80;44.70
74359;DHT22;62792;46.236;6.040;2023-12-20T06:22:34;19.80;44.90
74359;DHT22;62792;46.236;6.040;2023-12-20T06:27:38;19.90;44.90
74359;DHT22;62792;46.236;6.040;2023-12-20T06:32:43;19.90;44.60
74359;DHT22;62792;46.236;6.040;2023-12-20T06:37:48;19.90;44.80
74359;DHT22;62792;46.236;6.040;2023-12-20T06:42:52;20.00;44.90
74359;DHT22;62792;46.236;6.040;2023-12-20T06:48:09;19.90;44.90
74359;DHT22;62792;46.236;6.040;2023-12-20T06:53:13;19.90;44.90
74359;DHT22;62792;46.236;6.040;2023-12-20T06:58:17;19.90;44.90
74359;DHT22;62792;46.236;6.040;2023-12-20T07:03:21;20.00;45.00
74359;DHT22;62792;46.236;6.040;2023-12-20T07:08:24;20.00;44.90
74359;DHT22;62792;46.236;6.040;2023-12-20T07:13:28;20.00;44.80
74359;DHT22;62792;46.236;6.040;2023-12-20T07:18:32;20.00;44.90
74359;DHT22;62792;46.236;6.040;2023-12-20T07:23:35;20.00;45.00
74359;DHT22;62792;46.236;6.040;2023-12-20T07:28:40;20.00;45.20
74359;DHT22;62792;46.236;6.040;2023-12-20T07:33:43;20.00;45.00
74359;DHT22;62792;46.236;6.040;2023-12-20T07:38:47;20.00;45.30
74359;DHT22;62792;46.236;6.040;2023-12-20T07:43:51;20.00;45.10
74359;DHT22;62792;46.236;6.040;2023-12-20T07:48:55;20.00;45.30
74359;DHT22;62792;46.236;6.040;2023-12-20T07:53:58;20.10;45.10
74359;DHT22;62792;46.236;6.040;2023-12-20T07:59:02;20.00;45.10
74359;DHT22;62792;46.236;6.040;2023-12-20T08:04:08;20.10;45.30
74359;DHT22;62792;46.236;6.040;2023-12-20T08:09:11;20.00;45.10
74359;DHT22;62792;46.236;6.040;2023-12-20T08:14:16;20.20;45.30
74359;DHT22;62792;46.236;6.040;2023-12-20T08:19:20;20.20;44.90
74359;DHT22;62792;46.236;6.040;2023-12-20T08:24:23;20.20;45.00
74359;DHT22;62792;46.236;6.040;2023-12-20T08:29:29;20.20;45.30
74359;DHT22;62792;46.236;6.040;2023-12-20T08:34:32;20.20;45.20
74359;DHT22;62792;46.236;6.040;2023-12-20T08:39:35;20.20;45.10
74359;DHT22;62792;46.236;6.040;2023-12-20T08:44:40;20.20;45.20
74359;DHT22;62792;46.236;6.040;2023-12-20T08:49:43;20.20;46.00
74359;DHT22;62792;46.236;6.040;2023-12-20T08:54:48;20.50;46.70
74359;DHT22;62792;46.236;6.040;2023-12-20T08:59:54;20.80;48.10
74359;DHT22;62792;46.236;6.040;2023-12-20T09:04:57;20.90;47.60
74359;DHT22;62792;46.236;6.040;2023-12-20T09:10:00;21.20;48.30
74359;DHT22;62792;46.236;6.040;2023-12-20T09:15:06;21.00;48.00
74359;DHT22;62792;46.236;6.040;2023-12-20T09:20:09;21.00;47.90
74359;DHT22;62792;46.236;6.040;2023-12-20T09:25:12;21.00;47.30
74359;DHT22;62792;46.236;6.040;2023-12-20T09:30:18;21.00;47.40
74359;DHT22;62792;46.236;6.040;2023-12-20T09:35:28;20.80;47.90
74359;DHT22;62792;46.236;6.040;2023-12-20T09:40:32;21.20;47.70
74359;DHT22;62792;46.236;6.040;2023-12-20T09:45:36;21.40;47.90
74359;DHT22;62792;46.236;6.040;2023-12-20T09:50:43;21.40;48.00
74359;DHT22;62792;46.236;6.040;2023-12-20T09:55:52;21.40;48.60
74359;DHT22;62792;46.236;6.040;2023-12-20T10:00:57;21.50;48.70
74359;DHT22;62792;46.236;6.040;2023-12-20T10:06:01;21.60;48.20
74359;DHT22;62792;46.236;6.040;2023-12-20T10:11:04;21.60;48.70
74359;DHT22;62792;46.236;6.040;2023-12-20T10:16:09;21.70;48.20
74359;DHT22;62792;46.236;6.040;2023-12-20T10:21:12;21.80;48.30
74359;DHT22;62792;46.236;6.040;2023-12-20T10:26:19;21.90;47.40
74359;DHT22;62792;46.236;6.040;2023-12-20T10:31:27;21.90;47.30
74359;DHT22;62792;46.236;6.040;2023-12-20T10:36:31;21.80;47.90
74359;DHT22;62792;46.236;6.040;2023-12-20T10:41:35;21.70;46.70
74359;DHT22;62792;46.236;6.040;2023-12-20T10:46:44;21.50;47.10
74359;DHT22;62792;46.236;6.040;2023-12-20T10:51:53;21.60;46.70
74359;DHT22;62792;46.236;6.040;2023-12-20T10:56:58;21.60;46.80
74359;DHT22;62792;46.236;6.040;2023-12-20T11:02:04;21.60;46.70
74359;DHT22;62792;46.236;6.040;2023-12-20T11:07:11;21.60;46.70
74359;DHT22;62792;46.236;6.040;2023-12-20T11:12:22;21.80;46.50
74359;DHT22;62792;46.236;6.040;2023-12-20T11:17:30;22.00;46.80
74359;DHT22;62792;46.236;6.040;2023-12-20T11:22:34;21.90;46.80
74359;DHT22;62792;46.236;6.040;2023-12-20T11:27:42;21.90;46.80
74359;DHT22;62792;46.236;6.040;2023-12-20T11:32:49;21.80;47.00
74359;DHT22;62792;46.236;6.040;2023-12-20T11:37:51;21.70;47.10
74359;DHT22;62792;46.236;6.040;2023-12-20T11:42:54;21.60;47.10
74359;DHT22;62792;46.236;6.040;2023-12-20T11:47:59;21.60;46.80
74359;DHT22;62792;46.236;6.040;2023-12-20T11:53:02;21.50;46.80
74359;DHT22;62792;46.236;6.040;2023-12-20T11:58:05;21.40;47.10
74359;DHT22;62792;46.236;6.040;2023-12-20T12:03:09;21.40;47.10
74359;DHT22;62792;46.236;6.040;2023-12-20T12:08:12;21.40;47.10
74359;DHT22;62792;46.236;6.040;2023-12-20T12:13:15;21.30;47.20
74359;DHT22;62792;46.236;6.040;2023-12-20T12:18:20;21.30;47.00
74359;DHT22;62792;46.236;6.040;2023-12-20T12:23:23;21.40;47.10
74359;DHT22;62792;46.236;6.040;2023-12-20T12:28:26;21.20;46.90
74359;DHT22;62792;46.236;6.040;2023-12-20T12:33:32;21.30;46.90
74359;DHT22;62792;46.236;6.040;2023-12-20T12:38:35;21.10;46.60
74359;DHT22;62792;46.236;6.040;2023-12-20T12:43:38;21.00;46.70
74359;DHT22;62792;46.236;6.040;2023-12-20T12:48:42;21.00;46.40
74359;DHT22;62792;46.236;6.040;2023-12-20T12:53:47;21.00;46.20
74359;DHT22;62792;46.236;6.040;2023-12-20T12:58:50;21.00;45.80
74359;DHT22;62792;46.236;6.040;2023-12-20T13:03:55;20.90;46.60
74359;DHT22;62792;46.236;6.040;2023-12-20T13:08:58;21.10;45.30
74359;DHT22;62792;46.236;6.040;2023-12-20T13:14:01;21.30;45.30
74359;DHT22;62792;46.236;6.040;2023-12-20T13:19:06;21.50;45.20
74359;DHT22;62792;46.236;6.040;2023-12-20T13:24:10;21.60;45.20
74359;DHT22;62792;46.236;6.040;2023-12-20T13:29:13;21.80;46.40
74359;DHT22;62792;46.236;6.040;2023-12-20T13:34:17;21.70;47.00
74359;DHT22;62792;46.236;6.040;2023-12-20T13:39:21;21.70;47.20
74359;DHT22;62792;46.236;6.040;2023-12-20T13:44:24;21.80;47.30
74359;DHT22;62792;46.236;6.040;2023-12-20T13:49:28;21.80;47.00
74359;DHT22;62792;46.236;6.040;2023-12-20T13:54:31;21.90;46.80
74359;DHT22;62792;46.236;6.040;2023-12-20T13:59:34;21.90;46.50
74359;DHT22;62792;46.236;6.040;2023-12-20T14:04:38;21.80;46.30
74359;DHT22;62792;46.236;6.040;2023-12-20T14:09:44;21.90;46.10
74359;DHT22;62792;46.236;6.040;2023-12-20T14:14:48;21.90;46.20
74359;DHT22;62792;46.236;6.040;2023-12-20T14:19:52;21.90;46.10
74359;DHT22;62792;46.236;6.040;2023-12-20T14:24:56;22.00;46.00
74359;DHT22;62792;46.236;6.040;2023-12-20T14:29:59;22.00;45.80
74359;DHT22;62792;46.236;6.040;2023-12-20T14:35:04;21.80;45.50
74359;DHT22;62792;46.236;6.040;2023-12-20T14:40:08;21.80;45.70
74359;DHT22;62792;46.236;6.040;2023-12-20T14:45:17;21.80;45.20
74359;DHT22;62792;46.236;6.040;2023-12-20T14:50:21;21.80;44.50
74359;DHT22;62792;46.236;6.040;2023-12-20T14:55:24;21.80;44.70
74359;DHT22;62792;46.236;6.040;2023-12-20T15:00:30;21.90;44.70
74359;DHT22;62792;46.236;6.040;2023-12-20T15:05:34;21.80;43.40
74359;DHT22;62792;46.236;6.040;2023-12-20T15:10:38;21.80;43.10
74359;DHT22;62792;46.236;6.040;2023-12-20T15:15:41;21.70;42.90
74359;DHT22;62792;46.236;6.040;2023-12-20T15:20:48;21.70;42.90
74359;DHT22;62792;46.236;6.040;2023-12-20T15:25:52;21.90;43.20
74359;DHT22;62792;46.236;6.040;2023-12-20T15:30:55;21.90;43.30
74359;DHT22;62792;46.236;6.040;2023-12-20T15:35:59;22.00;43.50
74359;DHT22;62792;46.236;6.040;2023-12-20T15:41:02;22.00;43.70
74359;DHT22;62792;46.236;6.040;2023-12-20T15:46:05;22.00;44.10
74359;DHT22;62792;46.236;6.040;2023-12-20T15:51:10;22.00;44.10
74359;DHT22;62792;46.236;6.040;2023-12-20T15:56:13;22.00;43.90
74359;DHT22;62792;46.236;6.040;2023-12-20T16:01:17;21.80;44.00
74359;DHT22;62792;46.236;6.040;2023-12-20T16:06:21;21.60;44.10
74359;DHT22;62792;46.236;6.040;2023-12-20T16:11:24;21.60;43.80
74359;DHT22;62792;46.236;6.040;2023-12-20T16:16:27;21.50;43.80
74359;DHT22;62792;46.236;6.040;2023-12-20T16:21:31;21.50;43.80
74359;DHT22;62792;46.236;6.040;2023-12-20T16:26:34;21.40;43.40
74359;DHT22;62792;46.236;6.040;2023-12-20T16:31:37;21.30;43.50
74359;DHT22;62792;46.236;6.040;2023-12-20T16:36:52;21.40;43.40
74359;DHT22;62792;46.236;6.040;2023-12-20T16:41:56;21.20;43.40
74359;DHT22;62792;46.236;6.040;2023-12-20T16:46:59;21.20;43.30
74359;DHT22;62792;46.236;6.040;2023-12-20T16:52:04;21.20;43.20
74359;DHT22;62792;46.236;6.040;2023-12-20T16:57:07;21.10;43.00
74359;DHT22;62792;46.236;6.040;2023-12-20T17:02:10;21.10;43.20
74359;DHT22;62792;46.236;6.040;2023-12-20T17:07:15;21.10;43.10
74359;DHT22;62792;46.236;6.040;2023-12-20T17:12:18;21.20;43.10
74359;DHT22;62792;46.236;6.040;2023-12-20T17:17:21;21.10;43.00
74359;DHT22;62792;46.236;6.040;2023-12-20T17:22:26;21.10;43.00
74359;DHT22;62792;46.236;6.040;2023-12-20T17:27:29;21.10;43.10
74359;DHT22;62792;46.236;6.040;2023-12-20T17:32:32;21.00;42.90
74359;DHT22;62792;46.236;6.040;2023-12-20T17:37:40;21.10;42.60
74359;DHT22;62792;46.236;6.040;2023-12-20T17:42:43;21.00;43.00
74359;DHT22;62792;46.236;6.040;2023-12-20T17:47:46;21.00;42.90
74359;DHT22;62792;46.236;6.040;2023-12-20T17:52:51;21.00;42.80
74359;DHT22;62792;46.236;6.040;2023-12-20T17:57:57;20.90;42.90
74359;DHT22;62792;46.236;6.040;2023-12-20T18:03:00;21.00;42.80
74359;DHT22;62792;46.236;6.040;2023-12-20T18:08:04;21.00;42.70
74359;DHT22;62792;46.236;6.040;2023-12-20T18:13:08;21.00;42.60
74359;DHT22;62792;46.236;6.040;2023-12-20T18:18:11;20.90;42.70
74359;DHT22;62792;46.236;6.040;2023-12-20T18:23:15;20.90;42.40
74359;DHT22;62792;46.236;6.040;2023-12-20T18:28:19;20.90;43.10
74359;DHT22;62792;46.236;6.040;2023-12-20T18:33:22;20.80;43.00
74359;DHT22;62792;46.236;6.040;2023-12-20T18:38:26;20.80;43.10
74359;DHT22;62792;46.236;6.040;2023-12-20T18:43:32;20.80;43.10
74359;DHT22;62792;46.236;6.040;2023-12-20T18:48:35;20.70;43.00
74359;DHT22;62792;46.236;6.040;2023-12-20T18:53:42;20.60;43.10
74359;DHT22;62792;46.236;6.040;2023-12-20T18:58:45;20.60;43.20
74359;DHT22;62792;46.236;6.040;2023-12-20T19:03:48;20.50;43.30
74359;DHT22;62792;46.236;6.040;2023-12-20T19:08:53;20.50;43.10
74359;DHT22;62792;46.236;6.040;2023-12-20T19:13:56;20.40;43.20
74359;DHT22;62792;46.236;6.040;2023-12-20T19:18:59;20.40;43.00
74359;DHT22;62792;46.236;6.040;2023-12-20T19:24:04;20.30;42.90
74359;DHT22;62792;46.236;6.040;2023-12-20T19:29:07;20.30;42.90
74359;DHT22;62792;46.236;6.040;2023-12-20T19:34:10;20.20;42.90
74359;DHT22;62792;46.236;6.040;2023-12-20T19:39:14;20.20;43.00
74359;DHT22;62792;46.236;6.040;2023-12-20T19:44:20;20.30;42.60
74359;DHT22;62792;46.236;6.040;2023-12-20T19:49:23;20.30;42.70
74359;DHT22;62792;46.236;6.040;2023-12-20T19:54:27;20.30;43.00
74359;DHT22;62792;46.236;6.040;2023-12-20T19:59:30;20.20;42.70
74359;DHT22;62792;46.236;6.040;2023-12-20T20:04:33;20.20;42.70
74359;DHT22;62792;46.236;6.040;2023-12-20T20:09:38;20.10;42.50
74359;DHT22;62792;46.236;6.040;2023-12-20T20:14:41;20.10;42.50
74359;DHT22;62792;46.236;6.040;2023-12-20T20:19:44;20.00;42.70
74359;DHT22;62792;46.236;6.040;2023-12-20T20:24:48;20.00;42.90
74359;DHT22;62792;46.236;6.040;2023-12-20T20:29:51;20.00;42.60
74359;DHT22;62792;46.236;6.040;2023-12-20T20:34:55;20.00;42.70
74359;DHT22;62792;46.236;6.040;2023-12-20T20:39:59;20.00;42.60
74359;DHT22;62792;46.236;6.040;2023-12-20T20:45:02;19.90;42.60
74359;DHT22;62792;46.236;6.040;2023-12-20T20:50:06;19.90;42.50
74359;DHT22;62792;46.236;6.040;2023-12-20T20:55:11;19.90;42.70
74359;DHT22;62792;46.236;6.040;2023-12-20T21:00:14;19.90;42.30
74359;DHT22;62792;46.236;6.040;2023-12-20T21:05:18;20.00;42.30
74359;DHT22;62792;46.236;6.040;2023-12-20T21:10:22;19.90;42.60
74359;DHT22;62792;46.236;6.040;2023-12-20T21:15:25;20.00;42.30
74359;DHT22;62792;46.236;6.040;2023-12-20T21:20:28;20.00;42.60
74359;DHT22;62792;46.236;6.040;2023-12-20T21:25:32;19.80;42.40
74359;DHT22;62792;46.236;6.040;2023-12-20T21:30:36;19.80;42.30
74359;DHT22;62792;46.236;6.040;2023-12-20T21:35:40;19.80;42.60
74359;DHT22;62792;46.236;6.040;2023-12-20T21:40:44;19.80;42.50
74359;DHT22;62792;46.236;6.040;2023-12-20T21:45:48;19.90;42.40
74359;DHT22;62792;46.236;6.040;2023-12-20T21:50:51;19.90;42.60
74359;DHT22;62792;46.236;6.040;2023-12-20T21:55:56;19.80;42.40
74359;DHT22;62792;46.236;6.040;2023-12-20T22:00:59;19.90;42.80
74359;DHT22;62792;46.236;6.040;2023-12-20T22:06:07;19.80;42.50
74359;DHT22;62792;46.236;6.040;2023-12-20T22:11:12;19.90;42.30
74359;DHT22;62792;46.236;6.040;2023-12-20T22:16:14;19.80;42.40
74359;DHT22;62792;46.236;6.040;2023-12-20T22:21:18;19.80;42.70
74359;DHT22;62792;46.236;6.040;2023-12-20T22:26:22;19.80;42.20
74359;DHT22;62792;46.236;6.040;2023-12-20T22:31:25;19.80;42.60
74359;DHT22;62792;46.236;6.040;2023-12-20T22:36:28;19.70;42.50
74359;DHT22;62792;46.236;6.040;2023-12-20T22:41:32;19.80;42.50
74359;DHT22;62792;46.236;6.040;2023-12-20T22:46:35;19.70;42.60
74359;DHT22;62792;46.236;6.040;2023-12-20T22:51:38;19.70;42.50
74359;DHT22;62792;46.236;6.040;2023-12-20T22:56:43;19.70;42.50
74359;DHT22;62792;46.236;6.040;2023-12-20T23:01:46;19.80;42.40
74359;DHT22;62792;46.236;6.040;2023-12-20T23:06:49;19.80;42.40
74359;DHT22;62792;46.236;6.040;2023-12-20T23:11:54;19.70;42.50
74359;DHT22;62792;46.236;6.040;2023-12-20T23:16:57;19.70;42.50
74359;DHT22;62792;46.236;6.040;2023-12-20T23:22:00;19.70;42.50
74359;DHT22;62792;46.236;6.040;2023-12-20T23:27:04;19.70;42.60
74359;DHT22;62792;46.236;6.040;2023-12-20T23:32:07;19.80;42.50
74359;DHT22;62792;46.236;6.040;2023-12-20T23:37:12;19.60;42.40
74359;DHT22;62792;46.236;6.040;2023-12-20T23:42:16;19.70;42.60
74359;DHT22;62792;46.236;6.040;2023-12-20T23:47:19;19.60;42.40
74359;DHT22;62792;46.236;6.040;2023-12-20T23:52:24;19.60;42.40
74359;DHT22;62792;46.236;6.040;2023-12-20T23:57:28;19.60;42.40
